createdAt,value
2019-04-10T00:00:56.257Z,101049.02
2019-04-10T00:03:32.883Z,101055.61
2019-04-10T00:06:00.488Z,101052.97
2019-04-10T00:08:32.470Z,101051.25
2019-04-10T00:11:04.638Z,101051.70
2019-04-10T00:13:36.483Z,101055.71
2019-04-10T00:16:09.177Z,101059.25
2019-04-10T00:18:40.238Z,101061.44
2019-04-10T00:21:11.357Z,101064.91
2019-04-10T00:23:42.219Z,101066.66
2019-04-10T00:26:13.495Z,101064.92
2019-04-10T00:28:45.249Z,101068.86
2019-04-10T00:31:15.997Z,101071.48
2019-04-10T00:33:47.199Z,101074.11
2019-04-10T00:36:18.207Z,101073.25
2019-04-10T00:38:49.173Z,101074.99
2019-04-10T00:41:22.352Z,101079.34
2019-04-10T00:43:53.205Z,101079.36
2019-04-10T00:46:24.345Z,101079.80
2019-04-10T00:48:54.972Z,101076.31
2019-04-10T00:51:25.830Z,101075.42
2019-04-10T00:53:57.280Z,101078.92
2019-04-10T00:56:28.374Z,101067.57
2019-04-10T00:58:59.652Z,101067.55
2019-04-10T01:01:31.940Z,101065.38
2019-04-10T01:04:02.858Z,101060.55
2019-04-10T01:06:33.941Z,101067.13
2019-04-10T01:09:08.788Z,101070.17
2019-04-10T01:11:40.105Z,101060.11
2019-04-10T01:14:11.651Z,101068.42
2019-04-10T01:16:43.887Z,101070.63
2019-04-10T01:19:16.134Z,101065.39
2019-04-10T01:21:46.965Z,101072.38
2019-04-10T01:24:17.660Z,101068.89
2019-04-10T01:26:48.317Z,101067.98
2019-04-10T01:29:19.691Z,101066.69
2019-04-10T01:31:51.258Z,101070.63
2019-04-10T01:34:22.242Z,101064.50
2019-04-10T01:36:54.603Z,101065.36
2019-04-10T01:39:30.534Z,101066.66
2019-04-10T01:42:01.333Z,101061.42
2019-04-10T01:44:33.005Z,101065.34
2019-04-10T01:47:04.794Z,101064.91
2019-04-10T01:49:35.490Z,101068.41
2019-04-10T01:52:06.918Z,101062.27
2019-04-10T01:54:37.717Z,101058.34
2019-04-10T01:57:10.342Z,101062.23
2019-04-10T01:59:42.444Z,101067.05
2019-04-10T02:02:16.878Z,101063.53
2019-04-10T02:04:48.288Z,101055.64
2019-04-10T02:07:20.261Z,101057.34
2019-04-10T02:09:51.868Z,101054.70
2019-04-10T02:12:23.635Z,101051.63
2019-04-10T02:14:54.526Z,101054.27
2019-04-10T02:17:25.430Z,101055.56
2019-04-10T02:19:58.692Z,101059.52
2019-04-10T02:22:30.838Z,101055.59
2019-04-10T02:25:03.297Z,101060.83
2019-04-10T02:27:34.403Z,101048.60
2019-04-10T02:30:10.354Z,101052.95
2019-04-10T02:32:43.304Z,101064.34
2019-04-10T02:35:17.181Z,101056.51
2019-04-10T02:37:49.500Z,101055.59
2019-04-10T02:40:19.307Z,101053.87
2019-04-10T02:42:51.326Z,101049.95
2019-04-10T02:45:23.662Z,101050.39
2019-04-10T02:47:56.603Z,101054.27
2019-04-10T02:50:29.381Z,101054.70
2019-04-10T02:53:01.394Z,101055.09
2019-04-10T02:55:33.375Z,101049.37
2019-04-10T02:58:05.802Z,101059.39
2019-04-10T03:00:37.899Z,101056.80
2019-04-10T03:03:09.501Z,101058.59
2019-04-10T03:05:42.669Z,101060.34
2019-04-10T03:08:15.895Z,101059.45
2019-04-10T03:10:53.768Z,101061.66
2019-04-10T03:13:21.753Z,101067.74
2019-04-10T03:15:53.562Z,101072.94
2019-04-10T03:18:25.116Z,101076.48
2019-04-10T03:20:56.553Z,101074.22
2019-04-10T03:23:27.424Z,101072.91
2019-04-10T03:25:59.470Z,101076.00
2019-04-10T03:28:31.978Z,101081.33
2019-04-10T03:31:05.413Z,101078.27
2019-04-10T03:33:55.324Z,101081.30
2019-04-10T03:36:27.685Z,101078.70
2019-04-10T03:39:01.845Z,101080.44
2019-04-10T03:41:31.104Z,101074.75
2019-04-10T03:44:02.629Z,101075.59
2019-04-10T03:46:33.381Z,101082.59
2019-04-10T03:49:05.346Z,101083.89
2019-04-10T03:51:36.728Z,101088.27
2019-04-10T03:54:07.538Z,101085.64
2019-04-10T03:56:38.329Z,101081.73
2019-04-10T03:59:09.372Z,101086.53
2019-04-10T04:01:40.952Z,101081.70
2019-04-10T04:04:11.851Z,101087.38
2019-04-10T04:06:42.533Z,101098.28
2019-04-10T04:09:15.052Z,101093.46
2019-04-10T04:11:46.445Z,101097.83
2019-04-10T04:14:17.323Z,101106.16
2019-04-10T04:16:49.150Z,101103.97
2019-04-10T04:19:20.054Z,101112.71
2019-04-10T04:21:50.669Z,101104.37
2019-04-10T04:24:24.734Z,101105.67
2019-04-10T04:26:55.497Z,101106.09
2019-04-10T04:29:26.907Z,101107.00
2019-04-10T04:31:59.020Z,101111.31
2019-04-10T04:34:29.971Z,101112.64
2019-04-10T04:37:00.812Z,101117.44
2019-04-10T04:39:32.935Z,101117.91
2019-04-10T04:42:05.084Z,101119.22
2019-04-10T04:44:37.482Z,101115.34
2019-04-10T04:47:09.645Z,101118.89
2019-04-10T04:49:40.681Z,101118.02
2019-04-10T04:52:14.224Z,101116.72
2019-04-10T04:54:45.645Z,101126.35
2019-04-10T04:57:17.041Z,101128.13
2019-04-10T04:59:48.336Z,101128.16
2019-04-10T05:02:19.937Z,101134.31
2019-04-10T05:04:51.847Z,101127.34
2019-04-10T05:07:22.754Z,101137.83
2019-04-10T05:09:54.569Z,101133.05
2019-04-10T05:12:25.544Z,101129.56
2019-04-10T05:14:56.432Z,101140.07
2019-04-10T05:17:27.463Z,101143.13
2019-04-10T05:19:58.700Z,101143.15
2019-04-10T05:22:30.337Z,101146.67
2019-04-10T05:25:01.447Z,101152.36
2019-04-10T05:27:33.069Z,101144.95
2019-04-10T05:30:06.427Z,101153.69
2019-04-10T05:32:37.593Z,101151.52
2019-04-10T05:35:10.060Z,101160.27
2019-04-10T05:37:41.200Z,101151.09
2019-04-10T05:40:12.140Z,101154.59
2019-04-10T05:42:43.201Z,101159.39
2019-04-10T05:45:14.842Z,101153.25
2019-04-10T05:47:46.558Z,101163.34
2019-04-10T05:50:17.662Z,101160.25
2019-04-10T05:52:48.739Z,101167.69
2019-04-10T05:55:20.449Z,101159.78
2019-04-10T05:57:55.251Z,101170.73
2019-04-10T06:00:27.020Z,101162.81
2019-04-10T06:03:00.524Z,101169.34
2019-04-10T06:05:32.107Z,101156.17
2019-04-10T06:08:03.231Z,101164.48
2019-04-10T06:10:34.970Z,101166.63
2019-04-10T06:13:06.818Z,101162.61
2019-04-10T06:15:39.209Z,101172.57
2019-04-10T06:18:12.810Z,101159.42
2019-04-10T06:20:45.267Z,101149.69
2019-04-10T06:23:17.508Z,101150.03
2019-04-10T06:25:50.140Z,101162.58
2019-04-10T06:28:25.462Z,101167.52
2019-04-10T06:30:58.597Z,101157.77
2019-04-10T06:33:29.801Z,101147.09
2019-04-10T06:36:00.803Z,101167.20
2019-04-10T06:38:32.938Z,101154.95
2019-04-10T06:41:06.289Z,101162.35
2019-04-10T06:43:37.255Z,101167.87
2019-04-10T06:46:08.349Z,101162.14
2019-04-10T06:48:40.369Z,101167.25
2019-04-10T06:51:12.301Z,101171.61
2019-04-10T06:53:43.346Z,101175.16
2019-04-10T06:56:14.466Z,101169.42
2019-04-10T06:58:45.144Z,101163.11
2019-04-10T07:01:16.671Z,101171.83
2019-04-10T07:03:56.634Z,101176.11
2019-04-10T07:06:36.289Z,101176.84
2019-04-10T07:08:57.110Z,101156.38
2019-04-10T07:11:30.835Z,101162.15
2019-04-10T07:14:01.609Z,101184.77
2019-04-10T07:16:34.096Z,101173.42
2019-04-10T07:19:08.599Z,101172.57
2019-04-10T07:21:38.699Z,101173.09
2019-04-10T07:24:12.411Z,101166.56
2019-04-10T07:26:46.314Z,101180.45
2019-04-10T07:29:18.735Z,101174.86
2019-04-10T07:31:52.840Z,101158.95
2019-04-10T07:34:27.924Z,101155.00
2019-04-10T07:36:58.119Z,101163.17
2019-04-10T07:39:32.090Z,101166.91
2019-04-10T07:42:04.130Z,101165.96
2019-04-10T07:44:35.989Z,101156.49
2019-04-10T07:47:08.878Z,101168.81
2019-04-10T07:49:40.086Z,101168.38
2019-04-10T07:52:10.897Z,101165.67
2019-04-10T07:54:44.388Z,101163.09
2019-04-10T07:57:14.394Z,101156.28
2019-04-10T07:59:45.345Z,101171.98
2019-04-10T08:02:16.453Z,101168.30
2019-04-10T08:04:47.377Z,101168.67
2019-04-10T08:07:28.577Z,101182.11
2019-04-10T08:09:51.924Z,101171.16
2019-04-10T08:12:23.511Z,101181.09
2019-04-10T08:14:56.099Z,101169.06
2019-04-10T08:17:28.277Z,101173.22
2019-04-10T08:19:59.958Z,101181.43
2019-04-10T08:22:32.816Z,101186.33
2019-04-10T08:25:10.779Z,101169.55
2019-04-10T08:27:41.933Z,101179.53
2019-04-10T08:30:15.342Z,101184.93
2019-04-10T08:32:54.730Z,101200.45
2019-04-10T08:35:20.904Z,101185.50
2019-04-10T08:37:53.272Z,101182.42
2019-04-10T08:40:24.613Z,101172.23
2019-04-10T08:42:55.981Z,101185.28
2019-04-10T08:45:38.605Z,101188.06
2019-04-10T08:48:01.420Z,101178.64
2019-04-10T08:50:32.467Z,101186.83
2019-04-10T08:53:04.107Z,101200.89
2019-04-10T08:55:36.122Z,101192.81
2019-04-10T08:58:08.332Z,101175.07
2019-04-10T09:00:40.594Z,101198.11
2019-04-10T09:03:11.533Z,101191.48
2019-04-10T09:05:42.744Z,101188.98
2019-04-10T09:08:13.494Z,101171.81
2019-04-10T09:10:44.790Z,101185.38
2019-04-10T09:13:16.776Z,101187.89
2019-04-10T09:15:47.974Z,101162.61
2019-04-10T09:18:21.054Z,101183.31
2019-04-10T09:20:51.741Z,101172.80
2019-04-10T09:23:32.025Z,101180.06
2019-04-10T09:25:57.715Z,101172.45
2019-04-10T09:28:28.731Z,101166.62
2019-04-10T09:30:59.528Z,101165.61
2019-04-10T09:33:32.446Z,101157.20
2019-04-10T09:36:05.470Z,101160.89
2019-04-10T09:38:36.979Z,101169.54
2019-04-10T09:41:09.987Z,101162.68
2019-04-10T09:43:42.166Z,101158.09
2019-04-10T09:46:16.193Z,101162.14
2019-04-10T09:48:49.874Z,101162.37
2019-04-10T09:51:22.186Z,101163.59
2019-04-10T09:53:54.170Z,101160.47
2019-04-10T09:56:27.584Z,101152.02
2019-04-10T09:59:02.590Z,101142.05
2019-04-10T10:01:34.390Z,101167.16
2019-04-10T10:04:06.873Z,101161.50
2019-04-10T10:06:39.521Z,101148.67
2019-04-10T10:09:11.047Z,101147.11
2019-04-10T10:11:42.793Z,101141.39
2019-04-10T10:14:16.610Z,101142.25
2019-04-10T10:16:48.423Z,101149.39
2019-04-10T10:19:19.872Z,101161.38
2019-04-10T10:21:52.611Z,101162.86
2019-04-10T10:24:25.000Z,101144.03
2019-04-10T10:26:57.732Z,101155.41
2019-04-10T10:29:30.732Z,101167.12
2019-04-10T10:32:02.690Z,101156.77
2019-04-10T10:34:34.588Z,101166.58
2019-04-10T10:37:08.379Z,101150.64
2019-04-10T10:39:41.151Z,101169.14
2019-04-10T10:42:13.756Z,101154.95
2019-04-10T10:44:45.945Z,101148.70
2019-04-10T10:47:17.406Z,101154.05
2019-04-10T10:49:48.764Z,101165.67
2019-04-10T10:52:19.473Z,101156.34
2019-04-10T10:54:51.387Z,101158.42
2019-04-10T10:57:22.787Z,101160.02
2019-04-10T10:59:54.245Z,101159.69
2019-04-10T11:02:25.583Z,101150.82
2019-04-10T11:05:02.205Z,101160.03
2019-04-10T11:07:35.320Z,101157.22
2019-04-10T11:10:08.401Z,101144.93
2019-04-10T11:12:42.365Z,101145.24
2019-04-10T11:15:16.202Z,101158.91
2019-04-10T11:17:49.863Z,101147.25
2019-04-10T11:20:21.077Z,101165.45
2019-04-10T11:22:51.974Z,101144.30
2019-04-10T11:25:23.777Z,101157.30
2019-04-10T11:27:56.464Z,101141.64
2019-04-10T11:30:28.737Z,101135.42
2019-04-10T11:33:02.599Z,101138.48
2019-04-10T11:35:34.859Z,101141.66
2019-04-10T11:38:05.983Z,101140.46
2019-04-10T11:40:39.059Z,101146.20
2019-04-10T11:43:12.392Z,101135.96
2019-04-10T11:45:51.638Z,101152.58
2019-04-10T11:48:19.763Z,101139.20
2019-04-10T11:50:59.122Z,101143.02
2019-04-10T11:53:27.230Z,101135.85
2019-04-10T11:56:00.151Z,101149.96
2019-04-10T11:58:31.798Z,101143.16
2019-04-10T12:01:08.207Z,101135.03
2019-04-10T12:03:37.126Z,101141.63
2019-04-10T12:06:11.903Z,101161.62
2019-04-10T12:09:08.267Z,101147.00
2019-04-10T12:11:18.815Z,101152.30
2019-04-10T12:13:48.268Z,101140.88
2019-04-10T12:16:21.702Z,101150.31
2019-04-10T12:18:53.504Z,101159.27
2019-04-10T12:21:24.656Z,101145.18
2019-04-10T12:23:58.928Z,101152.03
2019-04-10T12:26:33.912Z,101169.70
2019-04-10T12:29:05.173Z,101162.10
2019-04-10T12:31:37.327Z,101153.15
2019-04-10T12:34:08.801Z,101153.59
2019-04-10T12:36:40.359Z,101148.03
2019-04-10T12:39:12.082Z,101147.33
2019-04-10T12:41:44.336Z,101136.73
2019-04-10T12:44:16.501Z,101142.68
2019-04-10T12:46:47.373Z,101151.02
2019-04-10T12:49:19.720Z,101156.47
2019-04-10T12:51:52.110Z,101147.89
2019-04-10T12:54:23.795Z,101136.59
2019-04-10T12:56:56.734Z,101136.47
2019-04-10T12:59:28.507Z,101141.73
2019-04-10T13:02:00.729Z,101135.45
2019-04-10T13:04:34.539Z,101128.47
2019-04-10T13:07:07.380Z,101153.95
2019-04-10T13:09:40.245Z,101141.73
2019-04-10T13:12:11.191Z,101139.42
2019-04-10T13:14:43.122Z,101145.36
2019-04-10T13:17:14.443Z,101129.84
2019-04-10T13:19:45.401Z,101133.23
2019-04-10T13:22:16.584Z,101132.32
2019-04-10T13:24:50.696Z,101137.83
2019-04-10T13:27:23.095Z,101137.76
2019-04-10T13:29:54.525Z,101153.95
2019-04-10T13:32:28.181Z,101136.31
2019-04-10T13:34:59.775Z,101125.74
2019-04-10T13:37:31.704Z,101134.80
2019-04-10T13:40:03.523Z,101145.81
2019-04-10T13:42:35.605Z,101141.63
2019-04-10T13:45:11.193Z,101139.61
2019-04-10T13:47:44.954Z,101149.91
2019-04-10T13:50:16.884Z,101144.14
2019-04-10T13:52:54.122Z,101139.82
2019-04-10T13:55:26.289Z,101139.02
2019-04-10T13:58:00.031Z,101136.95
2019-04-10T14:00:33.665Z,101148.97
2019-04-10T14:03:07.557Z,101149.97
2019-04-10T14:05:41.090Z,101145.98
2019-04-10T14:08:12.642Z,101157.86
2019-04-10T14:10:44.589Z,101156.34
2019-04-10T14:13:16.213Z,101156.61
2019-04-10T14:15:48.443Z,101142.83
2019-04-10T14:18:21.850Z,101171.67
2019-04-10T14:20:53.829Z,101158.53
2019-04-10T14:23:28.662Z,101152.75
2019-04-10T14:26:04.565Z,101159.72
2019-04-10T14:28:37.538Z,101157.91
2019-04-10T14:31:12.800Z,101153.64
2019-04-10T14:33:47.375Z,101143.28
2019-04-10T14:36:21.019Z,101148.16
2019-04-10T14:39:07.810Z,101169.94
2019-04-10T14:41:29.589Z,101175.27
2019-04-10T14:44:01.918Z,101165.15
2019-04-10T14:46:34.361Z,101165.08
2019-04-10T14:49:05.280Z,101163.29
2019-04-10T14:51:36.670Z,101163.54
2019-04-10T14:54:11.628Z,101166.76
2019-04-10T14:56:43.598Z,101156.03
2019-04-10T14:59:15.759Z,101163.87
2019-04-10T15:01:48.609Z,101168.41
2019-04-10T15:04:22.332Z,101167.69
2019-04-10T15:06:55.573Z,101169.33
2019-04-10T15:09:27.865Z,101172.48
2019-04-10T15:12:02.838Z,101183.02
2019-04-10T15:14:35.326Z,101178.34
2019-04-10T15:17:08.013Z,101181.77
2019-04-10T15:19:41.391Z,101178.27
2019-04-10T15:22:13.728Z,101181.81
2019-04-10T15:24:46.933Z,101183.99
2019-04-10T15:27:19.501Z,101176.34
2019-04-10T15:29:50.844Z,101171.87
2019-04-10T15:32:22.959Z,101185.61
2019-04-10T15:34:55.799Z,101181.09
2019-04-10T15:37:27.001Z,101191.62
2019-04-10T15:40:13.556Z,101181.61
2019-04-10T15:42:34.285Z,101188.06
2019-04-10T15:45:07.343Z,101190.83
2019-04-10T15:47:48.739Z,101191.56
2019-04-10T15:50:12.397Z,101194.07
2019-04-10T15:52:43.114Z,101209.27
2019-04-10T15:55:15.287Z,101201.88
2019-04-10T15:57:53.132Z,101201.07
2019-04-10T16:00:19.812Z,101206.88
2019-04-10T16:02:53.865Z,101213.11
2019-04-10T16:05:25.888Z,101203.26
2019-04-10T16:07:58.667Z,101204.37
2019-04-10T16:10:34.052Z,101207.67
2019-04-10T16:13:24.559Z,101214.50
2019-04-10T16:15:56.969Z,101211.47
2019-04-10T16:18:30.550Z,101209.77
2019-04-10T16:21:02.652Z,101210.76
2019-04-10T16:23:35.911Z,101202.02
2019-04-10T16:26:08.945Z,101218.30
2019-04-10T16:28:39.970Z,101212.66
2019-04-10T16:31:10.991Z,101226.27
2019-04-10T16:33:41.947Z,101213.47
2019-04-10T16:36:13.177Z,101227.88
2019-04-10T16:38:44.959Z,101220.03
2019-04-10T16:41:17.312Z,101221.34
2019-04-10T16:43:50.682Z,101224.27
2019-04-10T16:46:21.824Z,101222.53
2019-04-10T16:48:53.497Z,101220.86
2019-04-10T16:51:24.693Z,101217.34
2019-04-10T16:53:55.927Z,101224.08
2019-04-10T16:56:26.941Z,101223.36
2019-04-10T16:58:58.476Z,101232.34
2019-04-10T17:01:29.401Z,101227.39
2019-04-10T17:04:00.869Z,101241.05
2019-04-10T17:06:32.481Z,101229.23
2019-04-10T17:09:04.807Z,101242.34
2019-04-10T17:11:37.205Z,101240.69
2019-04-10T17:14:08.086Z,101236.47
2019-04-10T17:16:39.969Z,101242.00
2019-04-10T17:19:11.818Z,101244.02
2019-04-10T17:21:42.886Z,101248.75
2019-04-10T17:24:15.348Z,101251.66
2019-04-10T17:26:46.795Z,101250.75
2019-04-10T17:29:17.759Z,101249.41
2019-04-10T17:31:48.873Z,101252.36
2019-04-10T17:34:20.812Z,101269.27
2019-04-10T17:36:52.001Z,101263.42
2019-04-10T17:39:23.048Z,101262.11
2019-04-10T17:41:53.896Z,101262.35
2019-04-10T17:44:25.594Z,101262.08
2019-04-10T17:46:57.611Z,101268.40
2019-04-10T17:49:29.776Z,101276.63
2019-04-10T17:52:03.644Z,101288.64
2019-04-10T17:54:34.637Z,101283.70
2019-04-10T17:57:06.533Z,101294.64
2019-04-10T17:59:38.550Z,101291.81
2019-04-10T18:02:11.711Z,101296.34
2019-04-10T18:04:44.253Z,101293.30
2019-04-10T18:07:16.269Z,101305.50
2019-04-10T18:09:50.648Z,101302.85
2019-04-10T18:12:21.803Z,101300.76
2019-04-10T18:14:52.920Z,101313.70
2019-04-10T18:17:24.948Z,101309.67
2019-04-10T18:19:56.584Z,101313.55
2019-04-10T18:22:28.944Z,101316.98
2019-04-10T18:25:01.354Z,101326.55
2019-04-10T18:27:33.319Z,101328.19
2019-04-10T18:30:06.234Z,101329.23
2019-04-10T18:32:38.714Z,101324.80
2019-04-10T18:35:14.217Z,101334.47
2019-04-10T18:37:48.047Z,101334.73
2019-04-10T18:40:21.180Z,101337.33
2019-04-10T18:42:55.031Z,101340.03
2019-04-10T18:45:27.989Z,101348.53
2019-04-10T18:47:59.277Z,101348.08
2019-04-10T18:50:32.160Z,101342.45
2019-04-10T18:53:08.689Z,101349.20
2019-04-10T18:55:40.635Z,101345.34
2019-04-10T18:58:15.800Z,101352.01
2019-04-10T19:01:05.200Z,101356.02
2019-04-10T19:03:56.304Z,101357.84
2019-04-10T19:06:25.248Z,101362.73
2019-04-10T19:09:06.378Z,101353.59
2019-04-10T19:11:35.437Z,101354.55
2019-04-10T19:14:07.733Z,101356.33
2019-04-10T19:16:41.949Z,101360.69
2019-04-10T19:19:12.784Z,101369.52
2019-04-10T19:21:44.027Z,101361.19
2019-04-10T19:24:15.271Z,101365.16
2019-04-10T19:26:47.443Z,101365.65
2019-04-10T19:29:21.405Z,101363.51
2019-04-10T19:31:54.124Z,101368.33
2019-04-10T19:34:27.488Z,101366.97
2019-04-10T19:37:01.636Z,101367.33
2019-04-10T19:39:34.745Z,101368.70
2019-04-10T19:42:09.125Z,101368.70
2019-04-10T19:44:43.420Z,101373.06
2019-04-10T19:47:17.974Z,101371.34
2019-04-10T19:49:51.294Z,101374.47
2019-04-10T19:52:22.593Z,101373.64
2019-04-10T19:54:55.478Z,101379.98
2019-04-10T19:57:29.004Z,101381.81
2019-04-10T20:00:06.495Z,101378.85
2019-04-10T20:02:40.266Z,101381.12
2019-04-10T20:05:15.018Z,101383.75
2019-04-10T20:07:47.157Z,101385.48
2019-04-10T20:10:19.572Z,101389.87
2019-04-10T20:12:55.212Z,101385.95
2019-04-10T20:15:28.915Z,101389.50
2019-04-10T20:18:08.651Z,101396.57
2019-04-10T20:20:39.999Z,101397.91
2019-04-10T20:23:12.740Z,101398.35
2019-04-10T20:25:46.239Z,101403.16
2019-04-10T20:28:17.697Z,101407.55
2019-04-10T20:30:52.300Z,101405.38
2019-04-10T20:33:25.424Z,101409.30
2019-04-10T20:35:58.387Z,101411.50
2019-04-10T20:38:32.374Z,101408.88
2019-04-10T20:41:04.664Z,101407.98
2019-04-10T20:43:37.394Z,101414.16
2019-04-10T20:46:11.577Z,101424.68
2019-04-10T20:48:42.547Z,101422.48
2019-04-10T20:51:14.830Z,101425.97
2019-04-10T20:53:48.454Z,101429.50
2019-04-10T20:56:20.390Z,101429.05
2019-04-10T20:58:53.257Z,101426.48
2019-04-10T21:01:24.503Z,101431.74
2019-04-10T21:03:56.632Z,101434.80
2019-04-10T21:06:29.708Z,101434.39
2019-04-10T21:09:03.094Z,101439.20
2019-04-10T21:11:58.785Z,101445.34
2019-04-10T21:14:17.543Z,101440.95
2019-04-10T21:16:49.552Z,101439.20
2019-04-10T21:19:20.843Z,101437.88
2019-04-10T21:21:51.828Z,101441.84
2019-04-10T21:24:23.238Z,101449.73
2019-04-10T21:26:54.886Z,101448.40
2019-04-10T21:29:46.458Z,101448.42
2019-04-10T21:32:26.719Z,101445.78
2019-04-10T21:34:58.076Z,101453.65
2019-04-10T21:37:30.443Z,101459.34
2019-04-10T21:40:02.716Z,101456.27
2019-04-10T21:42:33.642Z,101467.22
2019-04-10T21:45:07.218Z,101467.20
2019-04-10T21:47:38.687Z,101469.39
2019-04-10T21:50:11.047Z,101465.45
2019-04-10T21:52:42.012Z,101465.89
2019-04-10T21:55:14.932Z,101468.56
2019-04-10T21:57:47.043Z,101461.12
2019-04-10T22:00:20.758Z,101462.89
2019-04-10T22:02:54.133Z,101458.06
2019-04-10T22:05:25.736Z,101458.91
2019-04-10T22:08:03.114Z,101461.55
2019-04-10T22:10:36.310Z,101465.95
2019-04-10T22:13:09.407Z,101465.95
2019-04-10T22:15:41.830Z,101465.95
2019-04-10T22:18:12.956Z,101465.08
2019-04-10T22:20:43.935Z,101468.58
2019-04-10T22:23:16.027Z,101476.01
2019-04-10T22:25:47.936Z,101476.44
2019-04-10T22:28:19.191Z,101480.84
2019-04-10T22:30:50.918Z,101480.38
2019-04-10T22:33:22.293Z,101480.83
2019-04-10T22:35:53.255Z,101484.76
2019-04-10T22:38:25.008Z,101482.13
2019-04-10T22:40:56.343Z,101487.40
2019-04-10T22:43:28.079Z,101486.95
2019-04-10T22:46:00.475Z,101486.08
2019-04-10T22:48:32.940Z,101485.63
2019-04-10T22:51:03.866Z,101488.70
2019-04-10T22:53:35.278Z,101482.59
2019-04-10T22:56:06.946Z,101482.14
2019-04-10T22:58:39.241Z,101485.19
2019-04-10T23:01:11.441Z,101483.45
2019-04-10T23:03:43.195Z,101487.83
2019-04-10T23:06:15.291Z,101484.34
2019-04-10T23:08:47.510Z,101486.09
2019-04-10T23:11:30.476Z,101488.72
2019-04-10T23:13:51.590Z,101493.07
2019-04-10T23:16:22.580Z,101486.47
2019-04-10T23:18:53.945Z,101488.63
2019-04-10T23:21:25.049Z,101488.61
2019-04-10T23:23:56.811Z,101490.77
2019-04-10T23:26:29.126Z,101490.79
2019-04-10T23:29:00.154Z,101492.95
2019-04-10T23:31:32.088Z,101485.11
2019-04-10T23:34:04.210Z,101490.78
2019-04-10T23:36:35.203Z,101495.98
2019-04-10T23:39:08.063Z,101502.03
2019-04-10T23:41:38.679Z,101495.94
2019-04-10T23:44:09.421Z,101502.01
2019-04-10T23:46:40.402Z,101497.19
2019-04-10T23:49:11.538Z,101499.83
2019-04-10T23:51:43.281Z,101495.50
2019-04-10T23:54:15.158Z,101495.92
2019-04-10T23:56:49.347Z,101496.34
2019-04-10T23:59:20.621Z,101489.36
